East Dundee, Illinois
Current Conditions -  °F | °C
As of 3:52 PM on Friday 31 Oct 2014 (Local Time) from KDPA Reporting Station
Overcast Overcast  
Wind Chill: 28°   Ceiling: 4900
Heat Index: 40°   Visibility: 10mi
Dew Point: 20°   Wind: 31mph
Humidity: 45%   Direction: 350°N
Pressure: 30.23"   Gusts: 40mph
Location:  42.1081°N, 88.3234°W
Report Text: KDPA 312052Z 35027G35KT 10SM OVC049 04/M07 A3023 RMK AO2 PK WND 34036/2013 SLP243 T00441067 51019
Loading
Personal Weather Stations






























Interactive Weather Map
Tropical Storm Tracking
New forecast layout! Learn more

10-Day Weather Forecast

Advertisements
Track Severe Weather on mobile